createdAt,value
2018-09-24T00:00:00.943Z,101373.73
2018-09-24T00:00:14.211Z,101370.59
2018-09-24T00:00:25.843Z,101373.73
2018-09-24T00:00:58.562Z,101373.73
2018-09-24T00:01:10.867Z,101380.25
2018-09-24T00:01:22.653Z,101377.64
2018-09-24T00:01:36.081Z,101374.12
2018-09-24T00:01:50.914Z,101372.81
2018-09-24T00:02:02.712Z,101371.89
2018-09-24T00:02:14.460Z,101378.03
2018-09-24T00:02:26.961Z,101375.42
2018-09-24T00:02:40.263Z,101383.78
2018-09-24T00:02:52.907Z,101377.27
2018-09-24T00:03:07.619Z,101379.33
2018-09-24T00:03:20.971Z,101375.96
2018-09-24T00:03:32.732Z,101379.33
2018-09-24T00:03:45.721Z,101380.25
2018-09-24T00:03:59.857Z,101381.55
2018-09-24T00:04:11.623Z,101378.03
2018-09-24T00:04:25.554Z,101380.25
2018-09-24T00:04:37.314Z,101385.84
2018-09-24T00:04:49.798Z,101379.71
2018-09-24T00:05:02.926Z,101390.68
2018-09-24T00:05:16.820Z,101387.16
2018-09-24T00:05:30.366Z,101378.41
2018-09-24T00:05:47.125Z,101390.68
2018-09-24T00:06:02.122Z,101384.00
2018-09-24T00:06:15.164Z,101383.63
2018-09-24T00:06:26.916Z,101396.66
2018-09-24T00:06:38.704Z,101390.14
2018-09-24T00:06:50.470Z,101389.59
2018-09-24T00:07:02.392Z,101388.07
2018-09-24T00:07:14.148Z,101394.05
2018-09-24T00:07:25.909Z,101392.36
2018-09-24T00:07:37.679Z,101397.04
2018-09-24T00:07:50.174Z,101399.11
2018-09-24T00:08:03.951Z,101399.27
2018-09-24T00:08:18.629Z,101398.34
2018-09-24T00:08:30.447Z,101404.48
2018-09-24T00:08:43.758Z,101405.02
2018-09-24T00:08:55.534Z,101401.65
2018-09-24T00:09:07.282Z,101400.34
2018-09-24T00:09:19.047Z,101396.97
2018-09-24T00:09:30.790Z,101402.41
2018-09-24T00:09:42.536Z,101403.72
2018-09-24T00:09:54.294Z,101407.63
2018-09-24T00:10:06.047Z,101408.93
2018-09-24T00:10:17.808Z,101403.17
2018-09-24T00:10:29.565Z,101404.86
2018-09-24T00:10:41.313Z,101402.25
2018-09-24T00:10:53.060Z,101400.73
2018-09-24T00:11:04.830Z,101401.11
2018-09-24T00:11:16.572Z,101404.64
2018-09-24T00:11:28.322Z,101397.20
2018-09-24T00:11:40.091Z,101397.96
2018-09-24T00:11:51.842Z,101394.59
2018-09-24T00:12:03.604Z,101391.06
2018-09-24T00:12:15.366Z,101392.36
2018-09-24T00:12:27.117Z,101391.44
2018-09-24T00:12:38.859Z,101391.44
2018-09-24T00:12:50.620Z,101394.97
2018-09-24T00:13:02.389Z,101392.20
2018-09-24T00:13:14.150Z,101381.78
2018-09-24T00:13:25.899Z,101397.42
2018-09-24T00:13:37.654Z,101394.81
2018-09-24T00:13:49.410Z,101393.52
2018-09-24T00:14:01.151Z,101393.67
2018-09-24T00:14:12.901Z,101393.52
2018-09-24T00:14:24.656Z,101394.27
2018-09-24T00:14:36.422Z,101394.81
2018-09-24T00:14:48.183Z,101393.89
2018-09-24T00:14:59.940Z,101398.19
2018-09-24T00:15:11.705Z,101386.83
2018-09-24T00:15:23.485Z,101398.72
2018-09-24T00:15:35.240Z,101397.80
2018-09-24T00:15:46.998Z,101399.64
2018-09-24T00:15:58.751Z,101389.22
2018-09-24T00:16:10.510Z,101392.59
2018-09-24T00:16:22.257Z,101394.81
2018-09-24T00:16:34.143Z,101400.41
2018-09-24T00:16:45.889Z,101401.72
2018-09-24T00:16:57.627Z,101396.50
2018-09-24T00:17:09.366Z,101398.72
2018-09-24T00:17:21.150Z,101400.41
2018-09-24T00:17:32.947Z,101400.95
2018-09-24T00:17:44.695Z,101400.95
2018-09-24T00:17:56.442Z,101404.09
2018-09-24T00:18:08.198Z,101404.48
2018-09-24T00:18:19.956Z,101399.27
2018-09-24T00:18:31.729Z,101400.57
2018-09-24T00:18:43.476Z,101402.80
2018-09-24T00:18:55.257Z,101399.64
2018-09-24T00:19:07.018Z,101398.34
2018-09-24T00:19:18.785Z,101401.33
2018-09-24T00:19:30.551Z,101404.48
2018-09-24T00:19:42.378Z,101404.86
2018-09-24T00:19:54.140Z,101400.95
2018-09-24T00:20:05.898Z,101407.85
2018-09-24T00:20:17.670Z,101406.55
2018-09-24T00:20:29.438Z,101404.32
2018-09-24T00:20:41.216Z,101405.24
2018-09-24T00:20:52.976Z,101407.47
2018-09-24T00:21:04.843Z,101403.17
2018-09-24T00:21:16.599Z,101409.31
2018-09-24T00:21:28.816Z,101411.53
2018-09-24T00:21:40.597Z,101400.19
2018-09-24T00:21:52.374Z,101402.25
2018-09-24T00:22:04.134Z,101406.70
2018-09-24T00:22:15.894Z,101406.16
2018-09-24T00:22:27.639Z,101402.80
2018-09-24T00:22:39.390Z,101400.95
2018-09-24T00:22:51.187Z,101405.24
2018-09-24T00:23:02.949Z,101415.29
2018-09-24T00:23:14.716Z,101404.86
2018-09-24T00:23:26.483Z,101405.78
2018-09-24T00:23:38.226Z,101408.77
2018-09-24T00:23:50.012Z,101406.70
2018-09-24T00:24:01.790Z,101402.25
2018-09-24T00:24:13.542Z,101406.16
2018-09-24T00:24:25.302Z,101412.30
2018-09-24T00:24:37.081Z,101403.94
2018-09-24T00:24:48.839Z,101404.86
2018-09-24T00:25:00.619Z,101409.16
2018-09-24T00:25:12.400Z,101409.53
2018-09-24T00:25:24.145Z,101407.85
2018-09-24T00:25:35.899Z,101402.48
2018-09-24T00:25:47.661Z,101407.31
2018-09-24T00:25:59.444Z,101406.00
2018-09-24T00:26:11.206Z,101402.09
2018-09-24T00:26:22.958Z,101407.31
2018-09-24T00:26:34.744Z,101404.32
2018-09-24T00:26:46.515Z,101403.40
2018-09-24T00:26:58.328Z,101404.70
2018-09-24T00:27:10.081Z,101408.23
2018-09-24T00:27:21.848Z,101409.16
2018-09-24T00:27:33.598Z,101408.23
2018-09-24T00:27:45.348Z,101413.83
2018-09-24T00:27:57.097Z,101410.45
2018-09-24T00:28:08.851Z,101406.00
2018-09-24T00:28:20.602Z,101406.00
2018-09-24T00:28:32.352Z,101411.22
2018-09-24T00:28:44.102Z,101411.22
2018-09-24T00:28:55.856Z,101413.06
2018-09-24T00:29:07.615Z,101409.53
2018-09-24T00:29:19.358Z,101416.05
2018-09-24T00:29:31.114Z,101414.36
2018-09-24T00:29:42.855Z,101414.91
2018-09-24T00:29:54.883Z,101417.36
2018-09-24T00:30:06.633Z,101419.58
2018-09-24T00:30:18.386Z,101412.52
2018-09-24T00:30:30.147Z,101412.52
2018-09-24T00:30:41.915Z,101416.97
2018-09-24T00:30:53.671Z,101414.75
2018-09-24T00:31:05.441Z,101416.05
2018-09-24T00:31:17.200Z,101416.97
2018-09-24T00:31:28.955Z,101412.14
2018-09-24T00:31:40.702Z,101414.36
2018-09-24T00:31:52.465Z,101416.59
2018-09-24T00:32:04.215Z,101417.89
2018-09-24T00:32:15.958Z,101416.97
2018-09-24T00:32:27.724Z,101418.28
2018-09-24T00:32:39.466Z,101415.67
2018-09-24T00:32:51.220Z,101415.67
2018-09-24T00:33:02.977Z,101419.05
2018-09-24T00:33:14.888Z,101421.27
2018-09-24T00:33:26.626Z,101417.52
2018-09-24T00:33:38.388Z,101414.91
2018-09-24T00:33:50.170Z,101423.49
2018-09-24T00:34:01.916Z,101416.97
2018-09-24T00:34:13.681Z,101416.05
2018-09-24T00:34:25.442Z,101421.27
2018-09-24T00:34:37.186Z,101421.27
2018-09-24T00:34:48.934Z,101420.34
2018-09-24T00:35:00.700Z,101425.17
2018-09-24T00:35:12.456Z,101415.12
2018-09-24T00:35:24.247Z,101426.09
2018-09-24T00:35:36.027Z,101425.55
2018-09-24T00:35:47.790Z,101423.49
2018-09-24T00:35:59.714Z,101427.94
2018-09-24T00:36:11.469Z,101423.11
2018-09-24T00:36:23.229Z,101420.13
2018-09-24T00:36:34.969Z,101422.19
2018-09-24T00:36:46.758Z,101417.89
2018-09-24T00:36:58.540Z,101425.34
2018-09-24T00:37:10.286Z,101424.03
2018-09-24T00:37:22.042Z,101426.26
2018-09-24T00:37:33.794Z,101427.94
2018-09-24T00:37:45.548Z,101425.72
2018-09-24T00:37:57.321Z,101431.47
2018-09-24T00:38:09.072Z,101427.02
2018-09-24T00:38:20.824Z,101423.11
2018-09-24T00:38:32.592Z,101423.49
2018-09-24T00:38:44.351Z,101428.32
2018-09-24T00:38:56.133Z,101430.93
2018-09-24T00:39:07.890Z,101427.02
2018-09-24T00:39:19.652Z,101434.30
2018-09-24T00:39:31.428Z,101431.31
2018-09-24T00:39:43.180Z,101430.39
2018-09-24T00:39:54.916Z,101434.30
2018-09-24T00:40:06.668Z,101427.41
2018-09-24T00:40:18.436Z,101427.02
2018-09-24T00:40:30.230Z,101428.70
2018-09-24T00:40:42.159Z,101430.01
2018-09-24T00:40:53.911Z,101431.69
2018-09-24T00:41:05.658Z,101430.77
2018-09-24T00:41:17.418Z,101431.69
2018-09-24T00:41:29.171Z,101427.63
2018-09-24T00:41:40.915Z,101433.00
2018-09-24T00:41:52.674Z,101428.16
2018-09-24T00:42:04.444Z,101427.63
2018-09-24T00:42:16.204Z,101425.55
2018-09-24T00:42:27.951Z,101431.69
2018-09-24T00:42:39.806Z,101429.09
2018-09-24T00:42:51.567Z,101431.69
2018-09-24T00:43:03.341Z,101434.30
2018-09-24T00:43:15.165Z,101434.69
2018-09-24T00:43:26.886Z,101428.92
2018-09-24T00:43:38.824Z,101433.37
2018-09-24T00:43:50.494Z,101431.69
2018-09-24T00:44:02.217Z,101431.31
2018-09-24T00:44:13.962Z,101442.50
2018-09-24T00:44:25.736Z,101431.69
2018-09-24T00:44:37.483Z,101433.00
2018-09-24T00:44:49.232Z,101436.91
2018-09-24T00:45:00.995Z,101434.69
2018-09-24T00:45:12.760Z,101438.21
2018-09-24T00:45:24.517Z,101438.59
2018-09-24T00:45:36.356Z,101435.06
2018-09-24T00:45:48.121Z,101441.20
2018-09-24T00:45:59.891Z,101438.97
2018-09-24T00:46:11.635Z,101443.05
2018-09-24T00:46:23.384Z,101433.37
2018-09-24T00:46:35.436Z,101445.11
2018-09-24T00:46:47.188Z,101446.03
2018-09-24T00:46:58.942Z,101437.29
2018-09-24T00:47:10.687Z,101439.89
2018-09-24T00:47:22.447Z,101440.28
2018-09-24T00:47:34.220Z,101445.49
2018-09-24T00:47:45.966Z,101440.66
2018-09-24T00:47:57.712Z,101445.11
2018-09-24T00:48:09.464Z,101442.88
2018-09-24T00:48:21.211Z,101439.73
2018-09-24T00:48:32.955Z,101443.27
2018-09-24T00:48:44.715Z,101442.72
2018-09-24T00:48:56.476Z,101441.96
2018-09-24T00:49:08.230Z,101446.80
2018-09-24T00:49:19.993Z,101446.41
2018-09-24T00:49:31.746Z,101447.55
2018-09-24T00:49:43.510Z,101448.48
2018-09-24T00:49:55.288Z,101441.05
2018-09-24T00:50:07.038Z,101454.08
2018-09-24T00:50:18.790Z,101451.47
2018-09-24T00:50:30.559Z,101447.94
2018-09-24T00:50:42.311Z,101449.78
2018-09-24T00:50:54.058Z,101452.77
2018-09-24T00:51:05.804Z,101452.77
2018-09-24T00:51:17.560Z,101450.92
2018-09-24T00:51:29.306Z,101457.98
2018-09-24T00:51:41.056Z,101464.88
2018-09-24T00:51:52.838Z,101454.45
2018-09-24T00:52:04.631Z,101450.00
2018-09-24T00:52:16.400Z,101457.45
2018-09-24T00:52:28.142Z,101455.22
2018-09-24T00:52:39.895Z,101464.50
2018-09-24T00:52:52.071Z,101466.19
2018-09-24T00:53:03.818Z,101461.89
2018-09-24T00:53:15.572Z,101457.45
2018-09-24T00:53:27.331Z,101451.85
2018-09-24T00:53:39.082Z,101457.45
2018-09-24T00:53:50.818Z,101458.36
2018-09-24T00:54:02.564Z,101456.68
2018-09-24T00:54:14.322Z,101453.53
2018-09-24T00:54:26.076Z,101454.84
2018-09-24T00:54:37.837Z,101451.47
2018-09-24T00:54:49.589Z,101460.05
2018-09-24T00:55:01.344Z,101460.97
2018-09-24T00:55:13.104Z,101460.59
2018-09-24T00:55:24.882Z,101457.45
2018-09-24T00:55:36.843Z,101456.14
2018-09-24T00:55:48.588Z,101452.61
2018-09-24T00:56:00.344Z,101460.05
2018-09-24T00:56:12.100Z,101460.21
2018-09-24T00:56:23.862Z,101455.77
2018-09-24T00:56:35.616Z,101460.97
2018-09-24T00:56:47.357Z,101461.89
2018-09-24T00:56:59.117Z,101459.29
2018-09-24T00:57:10.879Z,101462.81
2018-09-24T00:57:22.619Z,101459.67
2018-09-24T00:57:34.368Z,101456.30
2018-09-24T00:57:46.210Z,101455.77
2018-09-24T00:57:57.972Z,101455.38
2018-09-24T00:58:09.725Z,101460.59
2018-09-24T00:58:21.469Z,101461.89
2018-09-24T00:58:33.227Z,101460.59
2018-09-24T00:58:44.975Z,101457.98
2018-09-24T00:58:56.753Z,101462.81
2018-09-24T00:59:08.534Z,101460.59
2018-09-24T00:59:20.304Z,101463.20
2018-09-24T00:59:32.055Z,101459.29
2018-09-24T00:59:43.794Z,101465.42
2018-09-24T00:59:55.541Z,101462.27
2018-09-24T01:00:07.484Z,101460.59
2018-09-24T01:00:19.238Z,101463.73
2018-09-24T01:00:31.005Z,101464.50
2018-09-24T01:00:42.743Z,101463.36
2018-09-24T01:00:54.491Z,101459.29
2018-09-24T01:01:06.222Z,101461.35
2018-09-24T01:01:17.963Z,101465.81
2018-09-24T01:01:29.715Z,101458.36
2018-09-24T01:01:41.488Z,101462.27
2018-09-24T01:01:53.265Z,101463.58
2018-09-24T01:02:05.028Z,101463.58
2018-09-24T01:02:16.795Z,101459.67
2018-09-24T01:02:28.552Z,101463.96
2018-09-24T01:02:40.315Z,101466.19
2018-09-24T01:02:52.079Z,101461.89
2018-09-24T01:03:03.840Z,101461.73
2018-09-24T01:03:15.595Z,101467.87
2018-09-24T01:03:27.338Z,101463.04
2018-09-24T01:03:39.094Z,101462.27
2018-09-24T01:03:50.856Z,101466.19
2018-09-24T01:04:02.607Z,101462.66
2018-09-24T01:04:14.346Z,101460.97
2018-09-24T01:04:26.099Z,101462.66
2018-09-24T01:04:37.850Z,101465.27
2018-09-24T01:04:49.593Z,101459.12
2018-09-24T01:05:01.348Z,101461.35
2018-09-24T01:05:13.104Z,101471.78
2018-09-24T01:05:24.867Z,101464.88
2018-09-24T01:05:36.677Z,101467.87
2018-09-24T01:05:48.560Z,101464.88
2018-09-24T01:06:00.316Z,101463.96
2018-09-24T01:06:12.073Z,101462.27
2018-09-24T01:06:23.826Z,101466.19
2018-09-24T01:06:35.571Z,101467.48
2018-09-24T01:06:47.328Z,101470.09
2018-09-24T01:06:59.103Z,101468.41
2018-09-24T01:07:10.851Z,101474.39
2018-09-24T01:07:22.594Z,101471.18
2018-09-24T01:07:34.334Z,101468.41
2018-09-24T01:07:46.239Z,101468.95
2018-09-24T01:07:57.987Z,101471.78
2018-09-24T01:08:09.732Z,101471.40
2018-09-24T01:08:21.482Z,101466.95
2018-09-24T01:08:33.229Z,101463.58
2018-09-24T01:08:44.989Z,101474.55
2018-09-24T01:08:56.874Z,101464.13
2018-09-24T01:09:09.362Z,101468.41
2018-09-24T01:09:22.341Z,101466.73
2018-09-24T01:09:34.076Z,101469.17
2018-09-24T01:09:46.140Z,101475.69
2018-09-24T01:09:57.932Z,101471.24
2018-09-24T01:10:09.683Z,101477.53
2018-09-24T01:10:21.426Z,101473.08
2018-09-24T01:10:33.188Z,101471.24
2018-09-24T01:10:44.951Z,101470.48
2018-09-24T01:10:56.706Z,101465.27
2018-09-24T01:11:08.454Z,101469.55
2018-09-24T01:11:20.245Z,101463.96
2018-09-24T01:11:31.996Z,101464.72
2018-09-24T01:11:43.755Z,101471.24
2018-09-24T01:11:55.511Z,101472.70
2018-09-24T01:12:07.568Z,101465.64
2018-09-24T01:12:19.306Z,101477.37
2018-09-24T01:12:31.046Z,101476.62
2018-09-24T01:12:42.793Z,101480.91
2018-09-24T01:12:54.556Z,101475.69
2018-09-24T01:13:06.325Z,101469.55
2018-09-24T01:13:18.070Z,101472.55
2018-09-24T01:13:29.818Z,101471.24
2018-09-24T01:13:41.579Z,101471.24
2018-09-24T01:13:53.335Z,101476.45
2018-09-24T01:14:05.096Z,101476.45
2018-09-24T01:14:16.856Z,101474.77
2018-09-24T01:14:28.599Z,101471.24
2018-09-24T01:14:40.349Z,101476.07
2018-09-24T01:14:52.098Z,101466.95
2018-09-24T01:15:03.864Z,101477.00
2018-09-24T01:15:15.620Z,101478.30
2018-09-24T01:15:27.378Z,101469.55
2018-09-24T01:15:39.135Z,101471.02
2018-09-24T01:15:50.905Z,101473.47
2018-09-24T01:16:02.723Z,101479.44
2018-09-24T01:16:14.485Z,101474.23
2018-09-24T01:16:26.247Z,101480.74
2018-09-24T01:16:38.042Z,101479.44
2018-09-24T01:16:49.820Z,101485.58
2018-09-24T01:17:01.594Z,101480.74
2018-09-24T01:17:13.352Z,101477.98
2018-09-24T01:17:25.093Z,101475.91
2018-09-24T01:17:36.848Z,101483.35
2018-09-24T01:17:48.591Z,101470.70
2018-09-24T01:18:00.339Z,101478.14
2018-09-24T01:18:12.101Z,101474.61
2018-09-24T01:18:23.862Z,101482.05
2018-09-24T01:18:35.598Z,101479.98
2018-09-24T01:18:47.371Z,101478.91
2018-09-24T01:18:59.124Z,101475.91
2018-09-24T01:19:10.869Z,101479.06
2018-09-24T01:19:22.609Z,101482.59
2018-09-24T01:19:34.358Z,101476.45
2018-09-24T01:19:46.120Z,101485.20
2018-09-24T01:19:57.894Z,101479.60
2018-09-24T01:20:10.574Z,101477.92
2018-09-24T01:20:22.328Z,101487.97
2018-09-24T01:20:34.080Z,101485.73
2018-09-24T01:20:45.836Z,101487.80
2018-09-24T01:20:57.609Z,101479.60
2018-09-24T01:21:09.356Z,101477.92
2018-09-24T01:21:21.108Z,101486.66
2018-09-24T01:21:32.874Z,101480.53
2018-09-24T01:21:44.628Z,101475.16
2018-09-24T01:21:56.387Z,101479.82
2018-09-24T01:22:08.167Z,101478.68
2018-09-24T01:22:19.935Z,101481.67
2018-09-24T01:22:31.686Z,101472.55
2018-09-24T01:22:43.433Z,101484.81
2018-09-24T01:22:55.191Z,101479.60
2018-09-24T01:23:06.929Z,101476.07
2018-09-24T01:23:18.670Z,101485.20
2018-09-24T01:23:30.420Z,101481.29
2018-09-24T01:23:42.171Z,101483.89
2018-09-24T01:23:53.928Z,101480.36
2018-09-24T01:24:05.670Z,101480.74
2018-09-24T01:24:17.404Z,101484.27
2018-09-24T01:24:29.160Z,101479.06
2018-09-24T01:24:40.896Z,101485.95
2018-09-24T01:24:52.696Z,101481.29
2018-09-24T01:25:04.484Z,101481.67
2018-09-24T01:25:16.229Z,101482.97
2018-09-24T01:25:27.988Z,101481.29
2018-09-24T01:25:39.743Z,101481.67
2018-09-24T01:25:51.498Z,101485.95
2018-09-24T01:26:03.243Z,101484.27
2018-09-24T01:26:14.995Z,101483.35
2018-09-24T01:26:26.760Z,101483.35
2018-09-24T01:26:38.507Z,101484.66
2018-09-24T01:26:50.274Z,101488.19
2018-09-24T01:27:02.035Z,101487.27
2018-09-24T01:27:13.800Z,101489.48
2018-09-24T01:27:26.106Z,101486.50
2018-09-24T01:27:37.880Z,101486.88
2018-09-24T01:27:49.668Z,101488.95
2018-09-24T01:28:01.450Z,101490.63
2018-09-24T01:28:13.198Z,101487.64
2018-09-24T01:28:24.968Z,101488.56
2018-09-24T01:28:36.706Z,101486.88
2018-09-24T01:28:48.461Z,101489.33
2018-09-24T01:29:00.251Z,101491.17
2018-09-24T01:29:12.015Z,101480.20
2018-09-24T01:29:23.764Z,101488.19
2018-09-24T01:29:35.540Z,101489.48
2018-09-24T01:29:47.286Z,101483.89
2018-09-24T01:29:59.039Z,101484.27
2018-09-24T01:30:10.791Z,101485.03
2018-09-24T01:30:22.545Z,101489.87
2018-09-24T01:30:34.300Z,101486.72
2018-09-24T01:30:46.061Z,101488.19
2018-09-24T01:30:57.815Z,101483.73
2018-09-24T01:31:09.571Z,101488.41
2018-09-24T01:31:21.379Z,101490.63
2018-09-24T01:31:33.122Z,101488.02
2018-09-24T01:31:44.875Z,101490.25
2018-09-24T01:31:56.625Z,101483.19
2018-09-24T01:32:08.414Z,101482.05
2018-09-24T01:32:20.176Z,101485.95
2018-09-24T01:32:31.936Z,101489.33
2018-09-24T01:32:43.711Z,101496.77
2018-09-24T01:32:55.452Z,101490.25
2018-09-24T01:33:07.200Z,101491.94
2018-09-24T01:33:18.950Z,101489.33
2018-09-24T01:33:30.708Z,101492.09
2018-09-24T01:33:42.469Z,101489.87
2018-09-24T01:33:54.242Z,101494.16
2018-09-24T01:34:06.001Z,101491.17
2018-09-24T01:34:17.756Z,101494.70
2018-09-24T01:34:29.520Z,101488.56
2018-09-24T01:34:41.258Z,101492.86
2018-09-24T01:34:53.009Z,101492.48
2018-09-24T01:35:04.780Z,101491.94
2018-09-24T01:35:16.521Z,101490.63
2018-09-24T01:35:28.509Z,101495.08
2018-09-24T01:35:40.264Z,101490.63
2018-09-24T01:35:52.015Z,101494.16
2018-09-24T01:36:03.791Z,101499.00
2018-09-24T01:36:15.562Z,101495.84
2018-09-24T01:36:27.311Z,101493.23
2018-09-24T01:36:39.069Z,101495.84
2018-09-24T01:36:50.807Z,101496.77
2018-09-24T01:37:02.587Z,101499.38
2018-09-24T01:37:14.363Z,101503.66
2018-09-24T01:37:26.121Z,101491.94
2018-09-24T01:37:37.876Z,101494.00
2018-09-24T01:37:49.622Z,101487.86
2018-09-24T01:38:01.371Z,101487.48
2018-09-24T01:38:13.145Z,101500.14
2018-09-24T01:38:24.903Z,101500.14
2018-09-24T01:38:36.658Z,101500.52
2018-09-24T01:38:48.489Z,101502.74
2018-09-24T01:39:00.239Z,101496.61
2018-09-24T01:39:12.008Z,101500.14
2018-09-24T01:39:23.767Z,101497.53
2018-09-24T01:39:35.535Z,101495.84
2018-09-24T01:39:47.277Z,101501.06
2018-09-24T01:39:59.030Z,101508.88
2018-09-24T01:40:10.784Z,101499.21
2018-09-24T01:40:22.541Z,101501.44
2018-09-24T01:40:34.576Z,101504.42
2018-09-24T01:40:46.319Z,101503.12
2018-09-24T01:40:58.068Z,101497.91
2018-09-24T01:41:09.907Z,101499.21
2018-09-24T01:41:21.658Z,101502.74
2018-09-24T01:41:33.408Z,101506.27
2018-09-24T01:41:45.168Z,101504.97
2018-09-24T01:41:56.939Z,101505.89
2018-09-24T01:42:08.699Z,101507.58
2018-09-24T01:42:20.498Z,101506.27
2018-09-24T01:42:32.260Z,101513.71
2018-09-24T01:42:44.013Z,101506.65
2018-09-24T01:42:55.760Z,101508.88
2018-09-24T01:43:07.500Z,101510.18
2018-09-24T01:43:19.247Z,101504.05
2018-09-24T01:43:30.999Z,101508.88
2018-09-24T01:43:42.908Z,101509.04
2018-09-24T01:43:54.656Z,101512.41
2018-09-24T01:44:06.409Z,101514.47
2018-09-24T01:44:18.175Z,101513.71
2018-09-24T01:44:29.943Z,101512.41
2018-09-24T01:44:41.758Z,101511.87
2018-09-24T01:44:53.514Z,101506.65
2018-09-24T01:45:05.270Z,101507.95
2018-09-24T01:45:17.012Z,101514.09
2018-09-24T01:45:28.758Z,101506.65
2018-09-24T01:45:40.510Z,101512.79
2018-09-24T01:45:52.277Z,101509.26
2018-09-24T01:46:04.041Z,101510.56
2018-09-24T01:46:15.797Z,101509.26
2018-09-24T01:46:27.556Z,101504.97
2018-09-24T01:46:39.325Z,101508.88
2018-09-24T01:46:51.091Z,101507.58
2018-09-24T01:47:02.848Z,101513.71
2018-09-24T01:47:14.622Z,101508.88
2018-09-24T01:47:26.399Z,101511.48
2018-09-24T01:47:38.148Z,101511.48
2018-09-24T01:47:49.912Z,101511.48
2018-09-24T01:48:01.656Z,101518.38
2018-09-24T01:48:13.406Z,101518.38
2018-09-24T01:48:25.154Z,101512.41
2018-09-24T01:48:36.915Z,101515.39
2018-09-24T01:48:48.688Z,101512.79
2018-09-24T01:49:00.451Z,101515.94
2018-09-24T01:49:12.213Z,101514.63
2018-09-24T01:49:23.964Z,101521.16
2018-09-24T01:49:35.732Z,101515.39
2018-09-24T01:49:47.564Z,101518.00
2018-09-24T01:49:59.312Z,101515.02
2018-09-24T01:50:11.073Z,101510.18
2018-09-24T01:50:22.831Z,101516.31
2018-09-24T01:50:34.993Z,101525.98
2018-09-24T01:50:46.743Z,101518.55
2018-09-24T01:50:58.508Z,101519.09
2018-09-24T01:51:10.281Z,101519.47
2018-09-24T01:51:22.032Z,101518.92
2018-09-24T01:51:33.783Z,101523.76
2018-09-24T01:51:45.548Z,101517.78
2018-09-24T01:51:57.314Z,101526.52
2018-09-24T01:52:09.074Z,101525.06
2018-09-24T01:52:20.837Z,101521.53
2018-09-24T01:52:32.595Z,101526.75
2018-09-24T01:52:44.337Z,101525.83
2018-09-24T01:52:56.085Z,101515.39
2018-09-24T01:53:08.176Z,101534.02
2018-09-24T01:53:19.937Z,101526.97
2018-09-24T01:53:31.692Z,101528.81
2018-09-24T01:53:43.454Z,101525.28
2018-09-24T01:53:55.210Z,101533.64
2018-09-24T01:54:07.643Z,101528.43
2018-09-24T01:54:19.402Z,101528.43
2018-09-24T01:54:31.383Z,101530.49
2018-09-24T01:54:43.131Z,101530.66
2018-09-24T01:54:54.888Z,101529.73
2018-09-24T01:55:06.639Z,101526.58
2018-09-24T01:55:18.399Z,101535.88
2018-09-24T01:55:30.193Z,101528.81
2018-09-24T01:55:41.949Z,101534.56
2018-09-24T01:55:53.721Z,101530.66
2018-09-24T01:56:05.469Z,101532.34
2018-09-24T01:56:17.214Z,101530.27
2018-09-24T01:56:28.972Z,101530.66
2018-09-24T01:56:40.718Z,101532.72
2018-09-24T01:56:52.483Z,101537.17
2018-09-24T01:57:04.232Z,101533.27
2018-09-24T01:57:18.024Z,101537.55
2018-09-24T01:57:29.787Z,101535.88
2018-09-24T01:57:41.533Z,101539.23
2018-09-24T01:57:53.296Z,101536.25
2018-09-24T01:58:05.043Z,101540.70
2018-09-24T01:58:16.798Z,101535.88
2018-09-24T01:58:28.550Z,101540.70
2018-09-24T01:58:40.309Z,101543.31
2018-09-24T01:58:52.058Z,101537.94
2018-09-24T01:59:03.820Z,101542.77
2018-09-24T01:59:15.572Z,101533.64
2018-09-24T01:59:27.313Z,101537.94
2018-09-24T01:59:39.066Z,101536.25
2018-09-24T01:59:51.750Z,101539.78
2018-09-24T02:00:03.518Z,101542.39
2018-09-24T02:00:15.263Z,101541.46
2018-09-24T02:00:27.008Z,101548.91
2018-09-24T02:00:38.761Z,101545.37
2018-09-24T02:00:50.528Z,101547.06
2018-09-24T02:01:02.275Z,101545.37
2018-09-24T02:01:14.033Z,101545.75
2018-09-24T02:01:25.786Z,101548.36
2018-09-24T02:01:37.538Z,101547.06
2018-09-24T02:01:49.290Z,101535.70
2018-09-24T02:02:01.054Z,101548.36
2018-09-24T02:02:12.794Z,101549.66
2018-09-24T02:02:24.550Z,101540.54
2018-09-24T02:02:36.343Z,101548.91
2018-09-24T02:02:48.099Z,101543.69
2018-09-24T02:02:59.858Z,101543.31
2018-09-24T02:03:11.610Z,101552.81
2018-09-24T02:03:23.362Z,101541.84
2018-09-24T02:03:35.863Z,101543.69
2018-09-24T02:03:47.618Z,101552.81
2018-09-24T02:03:59.363Z,101551.89
2018-09-24T02:04:11.114Z,101546.67
2018-09-24T02:04:22.905Z,101553.20
2018-09-24T02:04:34.651Z,101550.59
2018-09-24T02:04:46.518Z,101552.27
2018-09-24T02:04:58.271Z,101551.89
2018-09-24T02:05:10.012Z,101554.50
2018-09-24T02:05:21.772Z,101555.80
2018-09-24T02:05:33.523Z,101550.97
2018-09-24T02:05:45.289Z,101554.50
2018-09-24T02:05:57.035Z,101553.58
2018-09-24T02:06:08.794Z,101549.28
2018-09-24T02:06:20.574Z,101554.50
2018-09-24T02:06:32.320Z,101557.65
2018-09-24T02:06:44.084Z,101554.50
2018-09-24T02:06:59.634Z,101547.59
2018-09-24T02:07:11.382Z,101553.20
2018-09-24T02:07:23.159Z,101554.88
2018-09-24T02:07:34.919Z,101560.64
2018-09-24T02:07:46.679Z,101557.65
2018-09-24T02:07:58.435Z,101559.33
2018-09-24T02:08:10.170Z,101557.48
2018-09-24T02:08:21.945Z,101556.73
2018-09-24T02:08:33.694Z,101560.09
2018-09-24T02:08:45.458Z,101564.92
2018-09-24T02:08:57.212Z,101550.59
2018-09-24T02:09:08.969Z,101554.50
2018-09-24T02:09:20.723Z,101559.33
2018-09-24T02:09:32.471Z,101553.73
2018-09-24T02:09:44.711Z,101553.95
2018-09-24T02:09:56.459Z,101558.79
2018-09-24T02:10:08.205Z,101551.34
2018-09-24T02:10:21.970Z,101557.87
2018-09-24T02:10:33.716Z,101560.09
2018-09-24T02:10:45.476Z,101556.56
2018-09-24T02:10:57.209Z,101557.11
2018-09-24T02:11:08.959Z,101557.11
2018-09-24T02:11:20.705Z,101556.18
2018-09-24T02:11:32.461Z,101559.71
2018-09-24T02:11:44.431Z,101561.94
2018-09-24T02:11:56.178Z,101562.31
2018-09-24T02:12:08.176Z,101563.62
2018-09-24T02:12:19.939Z,101564.55
2018-09-24T02:12:31.704Z,101556.34
2018-09-24T02:12:43.441Z,101560.64
2018-09-24T02:12:56.400Z,101559.88
2018-09-24T02:13:08.143Z,101559.71
2018-09-24T02:13:19.895Z,101561.56
2018-09-24T02:13:31.640Z,101558.41
2018-09-24T02:13:43.383Z,101560.47
2018-09-24T02:13:55.130Z,101565.69
2018-09-24T02:14:06.871Z,101565.30
2018-09-24T02:14:18.624Z,101560.47
2018-09-24T02:14:30.384Z,101564.92
2018-09-24T02:14:42.144Z,101564.38
2018-09-24T02:14:53.897Z,101561.77
2018-09-24T02:15:05.660Z,101560.47
2018-09-24T02:15:17.406Z,101560.85
2018-09-24T02:15:31.332Z,101564.77